Time;durP1;ratioP1;P1;durP2;ratioP2;P2;SDS_P1;SDS_P2;PMS_P1;PMS_P2;Temp;Humidity;BMP_temperature;BMP_pressure;BME280_temperature;BME280_humidity;BME280_pressure;Samples;Min_cycle;Max_cycle;Signal;HPM_P1;HPM_P2
2023/12/03 00:02:25;;;;;;;65.60;19.50;;;;;;;;;;5097167;28;20090;-77
2023/12/03 00:04:52;;;;;;;65.32;18.45;;;;;;;;;;5101267;28;20136;-76
2023/12/03 00:07:18;;;;;;;;;;;;;;;;;;5100995;28;20039;-77
2023/12/03 00:09:45;;;;;;;60.40;17.30;;;;;;;;;;5095754;28;19930;-75
2023/12/03 00:12:11;;;;;;;69.47;19.05;;;;;;;;;;5094052;28;20052;-76
2023/12/03 00:14:37;;;;;;;66.93;19.50;;;;;;;;;;5092993;28;20483;-76
2023/12/03 00:17:03;;;;;;;61.17;18.77;;;;;;;;;;5093275;28;20144;-79
2023/12/03 00:19:30;;;;;;;63.47;17.38;;;;;;;;;;5092778;28;20135;-78
2023/12/03 00:21:56;;;;;;;66.15;18.77;;;;;;;;;;5075198;28;20045;-76
2023/12/03 00:24:22;;;;;;;57.67;18.35;;;;;;;;;;5093487;28;20047;-78
2023/12/03 00:26:48;;;;;;;63.17;18.70;;;;;;;;;;5093931;28;20130;-78
2023/12/03 00:29:15;;;;;;;62.63;18.50;;;;;;;;;;5092999;28;20079;-78
2023/12/03 00:31:41;;;;;;;60.42;16.98;;;;;;;;;;5093237;28;20573;-79
2023/12/03 00:34:07;;;;;;;64.05;19.00;;;;;;;;;;5093194;28;20048;-78
2023/12/03 00:36:33;;;;;;;57.80;18.17;;;;;;;;;;5093245;28;20055;-77
2023/12/03 00:38:59;;;;;;;60.53;17.35;;;;;;;;;;5094012;28;20052;-78
2023/12/03 00:41:25;;;;;;;68.95;17.63;;;;;;;;;;5093178;28;20121;-79
2023/12/03 00:43:52;;;;;;;55.30;18.10;;;;;;;;;;5093317;28;20055;-77
2023/12/03 00:46:22;;;;;;;59.08;18.80;;;;;;;;;;5092954;28;20392;-78
2023/12/03 00:48:48;;;;;;;60.65;18.35;;;;;;;;;;5097176;28;20052;-76
2023/12/03 00:51:14;;;;;;;70.78;19.35;;;;;;;;;;5097623;28;20173;-76
2023/12/03 00:53:43;;;;;;;62.47;18.63;;;;;;;;;;5096140;28;20426;-76
2023/12/03 00:56:10;;;;;;;68.78;18.55;;;;;;;;;;5096298;28;20044;-74
2023/12/03 00:58:36;;;;;;;56.85;17.75;;;;;;;;;;5079069;28;20044;-76
2023/12/03 01:01:02;;;;;;;58.70;17.80;;;;;;;;;;5096782;28;20040;-77
2023/12/03 01:03:28;;;;;;;61.10;17.85;;;;;;;;;;5097671;28;20062;-76
2023/12/03 01:05:54;;;;;;;63.50;19.13;;;;;;;;;;5095538;28;20051;-75
2023/12/03 01:08:20;;;;;;;65.47;18.88;;;;;;;;;;5096711;28;20044;-76
2023/12/03 01:10:47;;;;;;;60.05;17.65;;;;;;;;;;5097586;28;20068;-76
2023/12/03 01:13:13;;;;;;;62.72;17.77;;;;;;;;;;5096724;28;20048;-77
2023/12/03 01:15:39;;;;;;;60.67;18.50;;;;;;;;;;5096559;28;20040;-78
2023/12/03 01:18:05;;;;;;;57.55;18.45;;;;;;;;;;5113343;28;20525;-77
2023/12/03 01:20:31;;;;;;;71.30;18.63;;;;;;;;;;5095364;28;20040;-75
2023/12/03 01:22:57;;;;;;;63.90;18.92;;;;;;;;;;5095255;28;20040;-76
2023/12/03 01:25:23;;;;;;;63.88;19.25;;;;;;;;;;5096007;28;20083;-77
2023/12/03 01:27:49;;;;;;;64.72;19.70;;;;;;;;;;5095740;28;20048;-76
2023/12/03 01:30:15;;;;;;;64.13;19.35;;;;;;;;;;5097018;28;20093;-76
2023/12/03 01:32:41;;;;;;;56.97;16.08;;;;;;;;;;5096305;28;20052;-76
2023/12/03 01:35:08;;;;;;;66.05;19.42;;;;;;;;;;5096413;28;20048;-76
2023/12/03 01:37:34;;;;;;;62.35;20.15;;;;;;;;;;5095429;28;20079;-74
2023/12/03 01:40:00;;;;;;;66.88;20.08;;;;;;;;;;5095137;28;20044;-76
2023/12/03 01:42:26;;;;;;;68.78;20.77;;;;;;;;;;5096001;28;20446;-74
2023/12/03 01:44:52;;;;;;;61.38;20.17;;;;;;;;;;5095796;28;20093;-77
2023/12/03 01:47:19;;;;;;;67.20;19.73;;;;;;;;;;5096153;28;20495;-76
2023/12/03 01:49:45;;;;;;;95.50;21.90;;;;;;;;;;5095946;28;20125;-75
2023/12/03 01:52:12;;;;;;;86.78;21.35;;;;;;;;;;5095981;28;20058;-76
2023/12/03 01:54:41;;;;;;;113.10;24.17;;;;;;;;;;5096712;28;20113;-75
2023/12/03 01:57:07;;;;;;;78.93;19.35;;;;;;;;;;5095719;28;20410;-75
2023/12/03 01:59:34;;;;;;;76.78;19.73;;;;;;;;;;5093582;28;20048;-75
2023/12/03 02:02:00;;;;;;;129.30;25.20;;;;;;;;;;5095488;28;20047;-74
2023/12/03 02:04:26;;;;;;;90.88;21.95;;;;;;;;;;5095326;28;20452;-76
2023/12/03 02:06:52;;;;;;;83.88;22.58;;;;;;;;;;5094720;28;20506;-73
2023/12/03 02:09:19;;;;;;;108.57;24.70;;;;;;;;;;5095096;28;20491;-75
2023/12/03 02:11:45;;;;;;;83.88;21.35;;;;;;;;;;5095309;28;20070;-75
2023/12/03 02:14:12;;;;;;;98.50;21.15;;;;;;;;;;5095406;28;20047;-74
2023/12/03 02:16:38;;;;;;;97.80;21.10;;;;;;;;;;5095682;28;20101;-76
2023/12/03 02:19:04;;;;;;;75.22;19.50;;;;;;;;;;5096599;28;20059;-74
2023/12/03 02:21:30;;;;;;;98.15;21.52;;;;;;;;;;5080182;28;20129;-76
2023/12/03 02:23:56;;;;;;;137.90;25.27;;;;;;;;;;5097800;28;20470;-75
2023/12/03 02:26:22;;;;;;;125.80;23.17;;;;;;;;;;5095852;28;20048;-75
2023/12/03 02:28:48;;;;;;;89.40;19.60;;;;;;;;;;5095555;28;20047;-76
2023/12/03 02:31:14;;;;;;;128.20;22.67;;;;;;;;;;5095351;28;20058;-74
2023/12/03 02:33:47;;;;;;;83.78;18.70;;;;;;;;;;5096300;28;20369;-75
2023/12/03 02:36:13;;;;;;;94.25;20.05;;;;;;;;;;5094341;28;20143;-73
2023/12/03 02:38:39;;;;;;;121.07;22.63;;;;;;;;;;5078162;28;20468;-75
2023/12/03 02:41:07;;;;;;;130.32;21.48;;;;;;;;;;5077433;28;20044;-74
2023/12/03 02:43:33;;;;;;;108.00;22.55;;;;;;;;;;5093905;28;20077;-75
2023/12/03 02:45:59;;;;;;;100.70;22.00;;;;;;;;;;5093643;28;20056;-75
2023/12/03 02:48:25;;;;;;;92.88;20.42;;;;;;;;;;5094240;28;20472;-76
2023/12/03 02:50:51;;;;;;;89.15;19.08;;;;;;;;;;5094954;28;20396;-75
2023/12/03 02:53:18;;;;;;;134.55;21.23;;;;;;;;;;5093754;28;20036;-74
2023/12/03 02:55:44;;;;;;;101.18;20.52;;;;;;;;;;5060333;28;20047;-72
2023/12/03 02:58:10;;;;;;;106.65;21.30;;;;;;;;;;5093709;28;20047;-75
2023/12/03 03:00:36;;;;;;;89.45;20.40;;;;;;;;;;5094564;28;20063;-74
2023/12/03 03:03:02;;;;;;;84.15;20.00;;;;;;;;;;5076745;28;20090;-75
2023/12/03 03:05:28;;;;;;;87.43;20.10;;;;;;;;;;5094498;28;20044;-76
2023/12/03 03:07:54;;;;;;;84.00;20.60;;;;;;;;;;5094197;28;20568;-74
2023/12/03 03:10:20;;;;;;;85.53;22.02;;;;;;;;;;5093857;28;20040;-75
2023/12/03 03:12:46;;;;;;;150.50;23.45;;;;;;;;;;5093595;28;20132;-73
2023/12/03 03:15:12;;;;;;;88.35;21.17;;;;;;;;;;5092920;28;20040;-72
2023/12/03 03:17:38;;;;;;;108.88;21.42;;;;;;;;;;5093097;28;20063;-74
2023/12/03 03:20:05;;;;;;;97.57;20.77;;;;;;;;;;5076446;28;20040;-73
2023/12/03 03:22:31;;;;;;;99.68;21.10;;;;;;;;;;5093328;28;20491;-74
2023/12/03 03:24:57;;;;;;;151.60;24.80;;;;;;;;;;5094196;28;20390;-74
2023/12/03 03:27:23;;;;;;;93.30;19.55;;;;;;;;;;5094779;28;20048;-72
2023/12/03 03:29:49;;;;;;;138.13;22.75;;;;;;;;;;5094510;28;20044;-73
2023/12/03 03:32:15;;;;;;;112.78;21.90;;;;;;;;;;5127038;27;20059;-73
2023/12/03 03:34:41;;;;;;;161.90;24.10;;;;;;;;;;5092907;28;20080;-74
2023/12/03 03:37:07;;;;;;;97.15;20.23;;;;;;;;;;5093957;28;20080;-73
2023/12/03 03:39:33;;;;;;;84.47;20.52;;;;;;;;;;5093197;28;20480;-74
2023/12/03 03:41:59;;;;;;;107.13;21.63;;;;;;;;;;5093968;28;20040;-73
2023/12/03 03:44:25;;;;;;;109.53;20.67;;;;;;;;;;5092971;28;20105;-74
2023/12/03 03:46:51;;;;;;;107.38;18.35;;;;;;;;;;5093915;28;20064;-73
2023/12/03 03:49:17;;;;;;;93.35;18.42;;;;;;;;;;5092691;28;20472;-72
2023/12/03 03:51:43;;;;;;;102.75;19.95;;;;;;;;;;5075718;28;20765;-73
2023/12/03 03:54:09;;;;;;;131.40;20.40;;;;;;;;;;5075957;28;20101;-74
2023/12/03 03:56:35;;;;;;;84.93;17.95;;;;;;;;;;5092417;28;20048;-74
2023/12/03 03:59:02;;;;;;;77.95;19.25;;;;;;;;;;5093609;28;20105;-73
2023/12/03 04:01:28;;;;;;;85.03;19.20;;;;;;;;;;5075877;28;20098;-73
2023/12/03 04:03:54;;;;;;;76.93;17.42;;;;;;;;;;5092323;28;20500;-73
2023/12/03 04:06:20;;;;;;;78.68;19.33;;;;;;;;;;5093633;28;20075;-74
2023/12/03 04:08:46;;;;;;;77.75;17.17;;;;;;;;;;5093826;28;20040;-74
2023/12/03 04:11:12;;;;;;;86.60;19.55;;;;;;;;;;5093579;28;20071;-73
2023/12/03 04:13:38;;;;;;;74.57;17.37;;;;;;;;;;5094492;28;20094;-73
2023/12/03 04:16:05;;;;;;;82.53;18.15;;;;;;;;;;5093526;28;20290;-75
2023/12/03 04:18:31;;;;;;;75.15;18.27;;;;;;;;;;5093319;28;20044;-73
2023/12/03 04:20:57;;;;;;;98.57;19.35;;;;;;;;;;5093258;28;20036;-73
2023/12/03 04:23:23;;;;;;;80.57;17.23;;;;;;;;;;5095188;28;20044;-73
2023/12/03 04:25:49;;;;;;;101.72;20.20;;;;;;;;;;5098489;28;20066;-73
2023/12/03 04:28:15;;;;;;;92.70;18.83;;;;;;;;;;5098225;28;20052;-74
2023/12/03 04:30:41;;;;;;;79.60;16.88;;;;;;;;;;5097406;28;20062;-73
2023/12/03 04:33:07;;;;;;;94.78;18.10;;;;;;;;;;5080018;28;20101;-74
2023/12/03 04:35:33;;;;;;;87.07;18.27;;;;;;;;;;5098621;28;20109;-74
2023/12/03 04:37:59;;;;;;;78.72;15.50;;;;;;;;;;5104768;28;20055;-74
2023/12/03 04:40:25;;;;;;;86.43;18.25;;;;;;;;;;5102296;28;20122;-70
2023/12/03 04:42:52;;;;;;;81.35;18.10;;;;;;;;;;5096515;28;20377;-73
2023/12/03 04:45:18;;;;;;;84.13;17.13;;;;;;;;;;5097289;28;20056;-73
2023/12/03 04:47:44;;;;;;;83.82;17.40;;;;;;;;;;5097166;28;20100;-73
2023/12/03 04:50:10;;;;;;;91.72;18.05;;;;;;;;;;5096323;28;20071;-74
2023/12/03 04:52:36;;;;;;;110.53;18.88;;;;;;;;;;5097144;28;20079;-73
2023/12/03 04:55:02;;;;;;;82.53;16.17;;;;;;;;;;5096194;28;20055;-74
2023/12/03 04:57:29;;;;;;;69.65;16.70;;;;;;;;;;5079162;28;20418;-73
2023/12/03 04:59:55;;;;;;;91.15;16.67;;;;;;;;;;5095659;28;20128;-74
2023/12/03 05:02:21;;;;;;;74.15;15.55;;;;;;;;;;5096006;28;20058;-75
2023/12/03 05:04:47;;;;;;;80.30;16.02;;;;;;;;;;5096786;28;20079;-73
2023/12/03 05:07:13;;;;;;;67.78;15.23;;;;;;;;;;5097686;28;20080;-73
2023/12/03 05:09:39;;;;;;;78.85;15.27;;;;;;;;;;5078957;28;20137;-74
2023/12/03 05:12:06;;;;;;;76.57;16.05;;;;;;;;;;5096890;28;20036;-74
2023/12/03 05:14:32;;;;;;;69.63;15.90;;;;;;;;;;5095394;28;20457;-75
2023/12/03 05:16:58;;;;;;;72.30;15.80;;;;;;;;;;5095841;28;20131;-73
2023/12/03 05:19:25;;;;;;;81.93;16.90;;;;;;;;;;5096602;28;20051;-73
2023/12/03 05:21:51;;;;;;;90.80;17.77;;;;;;;;;;5129355;27;20416;-74
2023/12/03 05:24:17;;;;;;;66.55;15.07;;;;;;;;;;5079439;28;20052;-73
2023/12/03 05:26:43;;;;;;;77.05;16.30;;;;;;;;;;5096413;28;20105;-74
2023/12/03 05:29:09;;;;;;;79.55;16.50;;;;;;;;;;5096466;28;20404;-73
2023/12/03 05:31:35;;;;;;;74.57;16.83;;;;;;;;;;5096237;28;20100;-72
2023/12/03 05:34:01;;;;;;;82.40;17.25;;;;;;;;;;5096865;28;20040;-73
2023/12/03 05:36:27;;;;;;;78.63;17.10;;;;;;;;;;5096833;28;20047;-73
2023/12/03 05:38:53;;;;;;;75.93;16.65;;;;;;;;;;5061759;28;20483;-73
2023/12/03 05:41:19;;;;;;;80.40;16.50;;;;;;;;;;5096136;28;20036;-73
2023/12/03 05:43:45;;;;;;;93.40;18.00;;;;;;;;;;5096123;28;20051;-73
2023/12/03 05:46:11;;;;;;;79.30;17.58;;;;;;;;;;5096018;28;20052;-73
2023/12/03 05:48:37;;;;;;;71.78;15.68;;;;;;;;;;5094843;28;20054;-73
2023/12/03 05:51:08;;;;;;;73.15;16.42;;;;;;;;;;5095870;28;20093;-74
2023/12/03 05:53:34;;;;;;;73.95;16.98;;;;;;;;;;5096051;28;20093;-73
2023/12/03 05:56:00;;;;;;;86.40;16.15;;;;;;;;;;5094968;28;20418;-73
2023/12/03 05:58:26;;;;;;;81.53;16.88;;;;;;;;;;5094678;28;20395;-72
2023/12/03 06:00:53;;;;;;;73.05;16.83;;;;;;;;;;5094418;28;20040;-74
2023/12/03 06:03:19;;;;;;;73.10;15.68;;;;;;;;;;5095183;28;20123;-73
2023/12/03 06:05:45;;;;;;;81.97;16.73;;;;;;;;;;5095646;28;20051;-74
2023/12/03 06:08:11;;;;;;;76.70;16.17;;;;;;;;;;5094677;28;20125;-74
2023/12/03 06:10:37;;;;;;;72.07;15.43;;;;;;;;;;5094717;28;20404;-73
2023/12/03 06:13:03;;;;;;;75.05;17.48;;;;;;;;;;5128776;27;20052;-74
2023/12/03 06:15:29;;;;;;;83.43;17.27;;;;;;;;;;5094773;28;20048;-75
2023/12/03 06:17:55;;;;;;;76.95;17.33;;;;;;;;;;5077760;28;20135;-75
2023/12/03 06:20:21;;;;;;;65.22;14.70;;;;;;;;;;5095043;28;20484;-74
2023/12/03 06:22:47;;;;;;;83.18;17.02;;;;;;;;;;5094387;28;20383;-73
2023/12/03 06:25:13;;;;;;;76.07;16.60;;;;;;;;;;5095105;28;20044;-73
2023/12/03 06:27:40;;;;;;;79.63;17.00;;;;;;;;;;5094244;28;20132;-75
2023/12/03 06:30:06;;;;;;;77.43;17.23;;;;;;;;;;5094261;28;20048;-72
2023/12/03 06:32:32;;;;;;;80.30;17.92;;;;;;;;;;5093979;28;20097;-72
2023/12/03 06:34:58;;;;;;;69.63;17.85;;;;;;;;;;5094178;28;20135;-73
2023/12/03 06:37:24;;;;;;;74.28;17.08;;;;;;;;;;5077306;28;20040;-73
2023/12/03 06:39:50;;;;;;;76.18;17.10;;;;;;;;;;5093928;28;20452;-74
2023/12/03 06:42:16;;;;;;;75.65;15.70;;;;;;;;;;5095962;28;20040;-74
2023/12/03 06:44:43;;;;;;;76.05;16.33;;;;;;;;;;5094184;28;20048;-73
2023/12/03 06:47:09;;;;;;;71.47;15.70;;;;;;;;;;5094543;28;20044;-73
2023/12/03 06:49:35;;;;;;;66.88;14.32;;;;;;;;;;5095858;28;20420;-73
2023/12/03 06:52:01;;;;;;;72.80;14.07;;;;;;;;;;5099290;28;20068;-74
2023/12/03 06:54:27;;;;;;;62.30;14.07;;;;;;;;;;5103748;28;20062;-74
2023/12/03 06:56:53;;;;;;;70.20;14.68;;;;;;;;;;5098631;28;20472;-71
2023/12/03 06:59:19;;;;;;;52.30;11.75;;;;;;;;;;5096056;28;20046;-71
2023/12/03 07:01:45;;;;;;;61.22;12.75;;;;;;;;;;5093520;28;20044;-71
2023/12/03 07:04:11;;;;;;;52.15;12.55;;;;;;;;;;5095106;28;20364;-75
2023/12/03 07:06:37;;;;;;;55.75;13.40;;;;;;;;;;5076814;28;20455;-73
2023/12/03 07:09:03;;;;;;;68.15;13.45;;;;;;;;;;5094322;28;20066;-73
2023/12/03 07:11:29;;;;;;;47.53;12.00;;;;;;;;;;5093144;28;20395;-73
2023/12/03 07:13:56;;;;;;;60.15;12.82;;;;;;;;;;5092842;28;20089;-73
2023/12/03 07:16:22;;;;;;;58.00;13.82;;;;;;;;;;5094329;28;20044;-73
2023/12/03 07:18:48;;;;;;;67.57;14.85;;;;;;;;;;5076045;28;20541;-73
2023/12/03 07:21:14;;;;;;;66.30;13.25;;;;;;;;;;5094113;28;20364;-74
2023/12/03 07:23:40;;;;;;;68.38;14.75;;;;;;;;;;5093997;28;20108;-73
2023/12/03 07:26:10;;;;;;;63.80;14.90;;;;;;;;;;5110245;28;20138;-73
2023/12/03 07:28:36;;;;;;;62.88;13.98;;;;;;;;;;5093104;28;20384;-73
2023/12/03 07:31:04;;;;;;;72.97;15.13;;;;;;;;;;5093092;28;20055;-74
2023/12/03 07:33:30;;;;;;;65.75;15.20;;;;;;;;;;5093897;28;20083;-73
2023/12/03 07:35:57;;;;;;;63.00;15.65;;;;;;;;;;5093431;28;20048;-74
2023/12/03 07:38:23;;;;;;;65.40;15.77;;;;;;;;;;5093551;28;20051;-74
2023/12/03 07:40:49;;;;;;;66.45;15.57;;;;;;;;;;5094008;28;20380;-73
2023/12/03 07:43:15;;;;;;;73.78;15.95;;;;;;;;;;5094242;28;20040;-74
2023/12/03 07:45:42;;;;;;;65.13;16.25;;;;;;;;;;5093298;28;20174;-73
2023/12/03 07:48:08;;;;;;;69.78;15.20;;;;;;;;;;5093797;28;20048;-73
2023/12/03 07:50:34;;;;;;;72.35;16.90;;;;;;;;;;5093371;28;20090;-73
2023/12/03 07:53:00;;;;;;;70.63;15.23;;;;;;;;;;5093612;28;20422;-73
2023/12/03 07:55:26;;;;;;;56.78;14.48;;;;;;;;;;5094370;28;20428;-73
2023/12/03 07:57:52;;;;;;;66.15;16.83;;;;;;;;;;5075990;28;20066;-72
2023/12/03 08:00:18;;;;;;;69.97;17.00;;;;;;;;;;5093445;28;20055;-75
2023/12/03 08:02:44;;;;;;;74.60;16.27;;;;;;;;;;5093622;28;20534;-75
2023/12/03 08:05:11;;;;;;;65.43;18.33;;;;;;;;;;5093274;28;20075;-75
2023/12/03 08:07:37;;;;;;;67.45;17.42;;;;;;;;;;5092138;28;20055;-74
2023/12/03 08:10:03;;;;;;;73.35;17.33;;;;;;;;;;5093520;28;20408;-74
2023/12/03 08:12:29;;;;;;;69.63;17.83;;;;;;;;;;5126714;27;20071;-75
2023/12/03 08:14:55;;;;;;;75.38;18.58;;;;;;;;;;5093066;28;20055;-72
2023/12/03 08:17:21;;;;;;;64.10;16.63;;;;;;;;;;5093154;28;20051;-74
2023/12/03 08:19:47;;;;;;;63.47;17.73;;;;;;;;;;5075293;28;20059;-75
2023/12/03 08:22:13;;;;;;;72.22;17.33;;;;;;;;;;5093765;28;20110;-75
2023/12/03 08:24:39;;;;;;;72.55;17.05;;;;;;;;;;5092676;28;20126;-74
2023/12/03 08:27:05;;;;;;;70.95;18.77;;;;;;;;;;5092645;28;20127;-72
2023/12/03 08:29:32;;;;;;;68.85;18.35;;;;;;;;;;5092086;28;20568;-75
2023/12/03 08:31:58;;;;;;;77.43;19.27;;;;;;;;;;5075113;28;20059;-74
2023/12/03 08:34:26;;;;;;;71.88;18.55;;;;;;;;;;5092983;28;20044;-75
2023/12/03 08:36:52;;;;;;;73.25;18.67;;;;;;;;;;5093124;28;20050;-74
2023/12/03 08:39:18;;;;;;;74.50;19.60;;;;;;;;;;5091614;28;20048;-74
2023/12/03 08:41:44;;;;;;;71.57;19.15;;;;;;;;;;5091802;28;20059;-75
2023/12/03 08:44:10;;;;;;;78.38;19.67;;;;;;;;;;5092846;28;20083;-74
2023/12/03 08:46:36;;;;;;;72.50;21.40;;;;;;;;;;5091473;28;20048;-72
2023/12/03 08:49:02;;;;;;;76.32;23.77;;;;;;;;;;5093619;28;20044;-74
2023/12/03 08:51:28;;;;;;;71.50;20.48;;;;;;;;;;5092797;28;20040;-73
2023/12/03 08:53:55;;;;;;;71.45;22.40;;;;;;;;;;5092875;28;20449;-74
2023/12/03 08:56:21;;;;;;;73.65;21.48;;;;;;;;;;5091595;28;20101;-75
2023/12/03 08:58:48;;;;;;;72.38;23.05;;;;;;;;;;5092882;28;20044;-76
2023/12/03 09:01:14;;;;;;;72.35;23.25;;;;;;;;;;5091329;28;20139;-74
2023/12/03 09:03:40;;;;;;;77.28;24.08;;;;;;;;;;5092723;28;20069;-73
2023/12/03 09:06:07;;;;;;;61.60;18.65;;;;;;;;;;5092866;28;20047;-75
2023/12/03 09:08:33;;;;;;;79.72;24.98;;;;;;;;;;5093573;28;20389;-74
2023/12/03 09:10:59;;;;;;;66.60;22.92;;;;;;;;;;5099056;28;20039;-75
2023/12/03 09:13:25;;;;;;;74.10;23.98;;;;;;;;;;5100285;28;20055;-76
2023/12/03 09:15:52;;;;;;;77.15;25.85;;;;;;;;;;5099926;28;20096;-73
2023/12/03 09:18:18;;;;;;;69.40;23.92;;;;;;;;;;5096355;28;20365;-73
2023/12/03 09:20:44;;;;;;;70.47;23.80;;;;;;;;;;5094798;28;20047;-73
2023/12/03 09:23:10;;;;;;;73.30;25.80;;;;;;;;;;5078947;28;20496;-73
2023/12/03 09:25:36;;;;;;;64.93;22.75;;;;;;;;;;5096996;28;20040;-73
2023/12/03 09:28:03;;;;;;;69.93;24.45;;;;;;;;;;5094943;28;20055;-71
2023/12/03 09:30:30;;;;;;;67.20;22.83;;;;;;;;;;5095025;28;20093;-73
2023/12/03 09:32:56;;;;;;;70.15;23.05;;;;;;;;;;5096685;28;20420;-73
2023/12/03 09:35:22;;;;;;;66.15;23.15;;;;;;;;;;5095562;28;20557;-73
2023/12/03 09:37:49;;;;;;;62.95;22.58;;;;;;;;;;5095869;28;20131;-73
2023/12/03 09:40:15;;;;;;;69.78;24.10;;;;;;;;;;5094760;28;20051;-73
2023/12/03 09:42:46;;;;;;;68.13;23.10;;;;;;;;;;5077781;28;20059;-73
2023/12/03 09:45:13;;;;;;;70.25;22.55;;;;;;;;;;5095465;28;20044;-76
2023/12/03 09:47:43;;;;;;;64.60;23.95;;;;;;;;;;5094615;28;20055;-75
2023/12/03 09:50:09;;;;;;;60.03;22.20;;;;;;;;;;5095470;28;20044;-75
2023/12/03 09:52:36;;;;;;;64.53;23.17;;;;;;;;;;5095646;28;20198;-73
2023/12/03 09:55:03;;;;;;;67.55;21.60;;;;;;;;;;5095694;28;20048;-72
2023/12/03 09:57:29;;;;;;;61.80;23.50;;;;;;;;;;5095493;28;20043;-75
2023/12/03 10:00:01;;;;;;;63.55;22.23;;;;;;;;;;5094820;28;20515;-72
2023/12/03 10:02:29;;;;;;;60.50;22.27;;;;;;;;;;5077256;28;20468;-73
2023/12/03 10:04:58;;;;;;;62.42;22.35;;;;;;;;;;5095307;28;20052;-72
2023/12/03 10:07:27;;;;;;;68.65;24.13;;;;;;;;;;5094324;28;20047;-70
2023/12/03 10:09:53;;;;;;;62.55;22.65;;;;;;;;;;5095350;28;20392;-72
2023/12/03 10:12:20;;;;;;;69.03;24.60;;;;;;;;;;5094277;28;20083;-72
2023/12/03 10:14:46;;;;;;;65.07;23.40;;;;;;;;;;5095354;28;20044;-73
2023/12/03 10:17:21;;;;;;;61.63;23.15;;;;;;;;;;5095038;28;20290;-71
2023/12/03 10:19:48;;;;;;;57.08;19.88;;;;;;;;;;5092880;28;20036;-71
2023/12/03 10:22:14;;;;;;;56.40;20.45;;;;;;;;;;5094869;28;20402;-74
2023/12/03 10:24:49;;;;;;;54.25;18.17;;;;;;;;;;5095141;28;20371;-74
2023/12/03 10:27:16;;;;;;;59.28;21.20;;;;;;;;;;5094844;28;20055;-72
2023/12/03 10:29:42;;;;;;;56.42;20.67;;;;;;;;;;5095089;28;20044;-72
2023/12/03 10:32:09;;;;;;;59.70;21.83;;;;;;;;;;5094492;28;20377;-72
2023/12/03 10:34:36;;;;;;;61.58;21.52;;;;;;;;;;5094036;28;20091;-74
2023/12/03 10:37:02;;;;;;;59.35;21.25;;;;;;;;;;5094589;28;20105;-72
2023/12/03 10:39:30;;;;;;;59.85;20.60;;;;;;;;;;5077282;28;20079;-72
2023/12/03 10:41:56;;;;;;;59.97;21.95;;;;;;;;;;5094708;28;20123;-71
2023/12/03 10:44:25;;;;;;;55.65;18.98;;;;;;;;;;5093298;28;20048;-73
2023/12/03 10:46:53;;;;;;;58.78;19.52;;;;;;;;;;5094633;28;20056;-74
2023/12/03 10:49:21;;;;;;;55.45;19.20;;;;;;;;;;5093631;28;20094;-71
2023/12/03 10:51:47;;;;;;;54.97;19.58;;;;;;;;;;5093887;28;20132;-75
2023/12/03 10:54:14;;;;;;;52.70;19.27;;;;;;;;;;5094376;28;20044;-74
2023/12/03 10:56:43;;;;;;;51.45;18.15;;;;;;;;;;5094017;28;20040;-72
2023/12/03 10:59:11;;;;;;;55.28;19.45;;;;;;;;;;5093756;28;20569;-72
2023/12/03 11:01:46;;;;;;;59.03;19.23;;;;;;;;;;5093897;28;20047;-73
2023/12/03 11:04:17;;;;;;;58.05;18.80;;;;;;;;;;5093772;28;20053;-73
2023/12/03 11:06:44;;;;;;;61.28;21.20;;;;;;;;;;5094092;28;20051;-73
2023/12/03 11:09:10;;;;;;;63.33;21.73;;;;;;;;;;5093838;28;20048;-72
2023/12/03 11:11:38;;;;;;;62.00;20.27;;;;;;;;;;5094298;28;20141;-73
2023/12/03 11:14:04;;;;;;;66.72;20.92;;;;;;;;;;5092450;28;20543;-72
2023/12/03 11:16:33;;;;;;;66.35;21.85;;;;;;;;;;5092275;28;20104;-73
2023/12/03 11:19:04;;;;;;;63.70;21.77;;;;;;;;;;5093881;28;20040;-75
2023/12/03 11:21:39;;;;;;;73.13;24.67;;;;;;;;;;5092627;28;20483;-72
2023/12/03 11:24:18;;;;;;;66.40;24.42;;;;;;;;;;5092323;28;20055;-71
2023/12/03 11:26:44;;;;;;;72.78;22.65;;;;;;;;;;5093840;28;20055;-72
2023/12/03 11:29:10;;;;;;;70.80;23.70;;;;;;;;;;5093550;28;20135;-73
2023/12/03 11:31:36;;;;;;;73.57;25.55;;;;;;;;;;5092470;28;20119;-73
2023/12/03 11:34:05;;;;;;;67.45;23.63;;;;;;;;;;5094028;28;20039;-73
2023/12/03 11:36:57;;;;;;;77.18;26.48;;;;;;;;;;5096009;28;20130;-73
2023/12/03 11:39:24;;;;;;;70.88;23.33;;;;;;;;;;5096934;28;20409;-73
2023/12/03 11:41:59;;;;;;;71.68;24.05;;;;;;;;;;5098880;28;20375;-71
2023/12/03 11:44:25;;;;;;;73.75;26.38;;;;;;;;;;5094379;28;20092;-73
2023/12/03 11:47:02;;;;;;;73.38;25.13;;;;;;;;;;5092216;28;20052;-73
2023/12/03 11:49:29;;;;;;;75.55;24.13;;;;;;;;;;5093401;28;20044;-71
2023/12/03 11:51:55;;;;;;;67.97;23.65;;;;;;;;;;5092230;28;20048;-72
2023/12/03 11:54:25;;;;;;;71.95;24.58;;;;;;;;;;5075453;28;20089;-70
2023/12/03 11:56:51;;;;;;;71.65;23.27;;;;;;;;;;5092423;28;20090;-72
2023/12/03 11:59:17;;;;;;;74.50;23.50;;;;;;;;;;5093324;28;20121;-75
2023/12/03 12:01:43;;;;;;;63.80;21.30;;;;;;;;;;5093183;28;20378;-71
2023/12/03 12:04:09;;;;;;;66.15;22.17;;;;;;;;;;5093225;28;20056;-73
2023/12/03 12:06:36;;;;;;;62.65;21.50;;;;;;;;;;5093474;28;20396;-75
2023/12/03 12:09:11;;;;;;;54.50;18.63;;;;;;;;;;5093546;28;20080;-77
2023/12/03 12:11:37;;;;;;;55.80;19.42;;;;;;;;;;5125950;27;20123;-73
2023/12/03 12:14:03;;;;;;;55.58;18.48;;;;;;;;;;5092241;28;20059;-72
2023/12/03 12:16:30;;;;;;;50.35;16.48;;;;;;;;;;5091948;28;20468;-72
2023/12/03 12:18:56;;;;;;;51.22;16.88;;;;;;;;;;5092801;28;20067;-71
2023/12/03 12:21:22;;;;;;;51.13;15.65;;;;;;;;;;5093045;28;20121;-73
2023/12/03 12:23:48;;;;;;;49.53;16.50;;;;;;;;;;5093046;28;20048;-72
2023/12/03 12:26:14;;;;;;;44.97;15.23;;;;;;;;;;5092568;28;20491;-73
2023/12/03 12:28:40;;;;;;;48.70;15.45;;;;;;;;;;5091897;28;20141;-73
2023/12/03 12:31:07;;;;;;;45.10;14.63;;;;;;;;;;5093383;28;20314;-73
2023/12/03 12:33:33;;;;;;;43.75;15.32;;;;;;;;;;5092714;28;20510;-72
2023/12/03 12:36:02;;;;;;;45.55;14.80;;;;;;;;;;5092351;28;20108;-77
2023/12/03 12:38:28;;;;;;;38.95;13.88;;;;;;;;;;5092937;28;20369;-69
2023/12/03 12:40:55;;;;;;;43.65;13.43;;;;;;;;;;5092894;28;20044;-73
2023/12/03 12:43:21;;;;;;;43.35;14.88;;;;;;;;;;5094300;28;20051;-74
2023/12/03 12:45:48;;;;;;;41.20;13.38;;;;;;;;;;5097227;28;20059;-73
2023/12/03 12:48:24;;;;;;;36.72;13.75;;;;;;;;;;5096879;28;20048;-72
2023/12/03 12:50:50;;;;;;;42.70;13.63;;;;;;;;;;5097065;28;20123;-71
2023/12/03 12:53:16;;;;;;;40.83;13.95;;;;;;;;;;5095809;28;20089;-73
2023/12/03 12:55:42;;;;;;;44.20;12.88;;;;;;;;;;5096746;28;20043;-73
2023/12/03 12:58:10;;;;;;;40.70;14.10;;;;;;;;;;5096701;28;20047;-73
2023/12/03 13:00:36;;;;;;;40.00;13.95;;;;;;;;;;5096515;28;20051;-73
2023/12/03 13:03:02;;;;;;;36.97;13.30;;;;;;;;;;5096651;28;20055;-72
2023/12/03 13:05:29;;;;;;;42.33;14.03;;;;;;;;;;5097626;28;20406;-73
2023/12/03 13:07:55;;;;;;;42.33;14.40;;;;;;;;;;5096227;28;20047;-73
2023/12/03 13:10:23;;;;;;;40.80;13.68;;;;;;;;;;5096176;28;20051;-72
2023/12/03 13:12:49;;;;;;;40.90;14.30;;;;;;;;;;5097150;28;20123;-74
2023/12/03 13:15:17;;;;;;;33.05;12.70;;;;;;;;;;5096304;28;20125;-72
2023/12/03 13:17:50;;;;;;;38.17;13.23;;;;;;;;;;5095026;28;20048;-72
2023/12/03 13:20:17;;;;;;;41.97;13.68;;;;;;;;;;5095924;28;20039;-74
2023/12/03 13:22:44;;;;;;;40.15;14.20;;;;;;;;;;5095885;28;20507;-73
2023/12/03 13:25:10;;;;;;;39.53;14.35;;;;;;;;;;5096617;28;20440;-73
2023/12/03 13:27:36;;;;;;;41.38;13.88;;;;;;;;;;5097049;28;20059;-75
2023/12/03 13:30:04;;;;;;;41.28;13.90;;;;;;;;;;5096607;28;20051;-74
2023/12/03 13:32:32;;;;;;;35.65;13.00;;;;;;;;;;5095847;28;20492;-74
2023/12/03 13:34:59;;;;;;;41.20;12.85;;;;;;;;;;5095151;28;20127;-75
2023/12/03 13:37:25;;;;;;;38.85;13.82;;;;;;;;;;5094953;28;20094;-75
2023/12/03 13:39:51;;;;;;;40.42;14.15;;;;;;;;;;5096513;28;20055;-74
2023/12/03 13:42:17;;;;;;;40.53;13.93;;;;;;;;;;5096046;28;20040;-75
2023/12/03 13:44:43;;;;;;;40.38;14.55;;;;;;;;;;5095755;28;20048;-73
2023/12/03 13:47:09;;;;;;;42.65;13.85;;;;;;;;;;5077513;28;20189;-75
2023/12/03 13:49:35;;;;;;;38.55;14.32;;;;;;;;;;5095860;28;20044;-75
2023/12/03 13:52:01;;;;;;;40.08;14.80;;;;;;;;;;5095779;28;20047;-75
2023/12/03 13:54:27;;;;;;;37.42;12.75;;;;;;;;;;5095608;28;20142;-74
2023/12/03 13:56:53;;;;;;;42.55;15.20;;;;;;;;;;5094761;28;20044;-74
2023/12/03 13:59:19;;;;;;;46.25;14.95;;;;;;;;;;5096271;28;20055;-75
2023/12/03 14:01:45;;;;;;;41.40;14.90;;;;;;;;;;5099607;28;20087;-73
2023/12/03 14:04:11;;;;;;;40.13;14.07;;;;;;;;;;5106545;28;20483;-73
2023/12/03 14:06:37;;;;;;;41.03;14.05;;;;;;;;;;5139960;27;20075;-75
2023/12/03 14:09:03;;;;;;;37.05;14.80;;;;;;;;;;5096388;28;20414;-74
2023/12/03 14:11:30;;;;;;;40.45;14.90;;;;;;;;;;5095456;28;20044;-73
2023/12/03 14:13:56;;;;;;;44.15;14.57;;;;;;;;;;5096452;28;20181;-76